Time;durP1;ratioP1;P1;durP2;ratioP2;P2;SDS_P1;SDS_P2;PMS_P1;PMS_P2;Temp;Humidity;BMP_temperature;BMP_pressure;BME280_temperature;BME280_humidity;BME280_pressure;Samples;Min_cycle;Max_cycle;Signal;HPM_P1;HPM_P2
2022/05/16 00:01:59;;;;;;;;;;;11.90;82.80;;;;;;5089676;28;19965;-63
2022/05/16 00:04:25;;;;;;;;;;;11.90;83.30;;;;;;5085530;28;19977;-63
2022/05/16 00:06:50;;;;;;;;;;;11.80;83.00;;;;;;5086826;28;20383;-63
2022/05/16 00:09:16;;;;;;;;;;;11.80;83.20;;;;;;5086182;28;20371;-63
2022/05/16 00:11:41;;;;;;;;;;;11.80;83.70;;;;;;5079825;28;19924;-63
2022/05/16 00:14:07;;;;;;;;;;;11.70;83.60;;;;;;5081314;28;19955;-63
2022/05/16 00:16:33;;;;;;;;;;;11.70;83.40;;;;;;5085466;28;19943;-63
2022/05/16 00:18:58;;;;;;;;;;;11.70;83.30;;;;;;5089725;28;19990;-63
2022/05/16 00:21:24;;;;;;;;;;;11.70;84.20;;;;;;5086336;28;20367;-63
2022/05/16 00:23:49;;;;;;;;;;;11.70;83.50;;;;;;5090304;28;19920;-63
2022/05/16 00:26:15;;;;;;;;;;;11.60;84.50;;;;;;5084480;28;19942;-64
2022/05/16 00:28:40;;;;;;;;;;;11.60;84.30;;;;;;5072404;28;19939;-63
2022/05/16 00:31:06;;;;;;;;;;;11.70;85.00;;;;;;5082361;28;19928;-63
2022/05/16 00:33:32;;;;;;;;;;;11.60;85.50;;;;;;5085002;28;19968;-63
2022/05/16 00:35:57;;;;;;;;;;;11.60;84.30;;;;;;5085175;28;19924;-63
2022/05/16 00:38:23;;;;;;;;;;;11.70;84.10;;;;;;5083026;28;19924;-63
2022/05/16 00:40:49;;;;;;;;;;;11.70;84.10;;;;;;5085285;28;19935;-63
2022/05/16 00:43:21;;;;;;;;;;;11.60;84.00;;;;;;5080755;28;20263;-63
2022/05/16 00:45:47;;;;;;;;;;;11.60;83.90;;;;;;5082518;28;20008;-63
2022/05/16 00:48:12;;;;;;;;;;;11.60;83.70;;;;;;5085236;28;19924;-63
2022/05/16 00:50:40;;;;;;;;;;;11.60;84.30;;;;;;5091590;28;19963;-63
2022/05/16 00:53:07;;;;;;;;;;;11.50;84.50;;;;;;5092992;28;19956;-63
2022/05/16 00:55:35;;;;;;;;;;;11.50;84.50;;;;;;5092689;28;19924;-63
2022/05/16 00:58:03;;;;;;;;;;;11.40;84.90;;;;;;5080860;28;20596;-63
2022/05/16 01:00:33;;;;;;;;;;;11.40;84.30;;;;;;5089421;28;19946;-63
2022/05/16 01:05:44;;;;;;;;;;;11.40;84.20;;;;;;5092514;28;19970;-63
2022/05/16 01:08:12;;;;;;;;;;;11.50;84.20;;;;;;5093002;28;19920;-63
2022/05/16 01:10:38;;;;;;;;;;;11.40;82.90;;;;;;5091535;28;20514;-63
2022/05/16 01:13:04;;;;;;;;;;;11.40;84.00;;;;;;5087092;28;19963;-63
2022/05/16 01:15:30;;;;;;;;;;;11.40;83.50;;;;;;5075431;28;20006;-63
2022/05/16 01:17:55;;;;;;;;;;;11.40;83.40;;;;;;5088490;28;20031;-63
2022/05/16 01:20:21;;;;;;;;;;;11.40;83.20;;;;;;5081708;28;19935;-63
2022/05/16 01:22:48;;;;;;;;;;;11.30;83.20;;;;;;5089748;28;19927;-63
2022/05/16 01:25:27;;;;;;;;;;;11.30;83.10;;;;;;5092784;28;19999;-63
2022/05/16 01:27:55;;;;;;;;;;;11.40;83.30;;;;;;5090001;28;19920;-63
2022/05/16 01:30:22;;;;;;;;;;;11.40;82.60;;;;;;5087293;28;19920;-63
2022/05/16 01:32:48;;;;;;;;;;;11.40;83.10;;;;;;5086948;28;20363;-63
2022/05/16 01:35:17;;;;;;;;;;;11.40;82.70;;;;;;5088157;28;19924;-63
2022/05/16 01:40:27;;;;;;;;;;;11.40;82.70;;;;;;5087064;28;19966;-64
2022/05/16 01:42:52;;;;;;;;;;;11.40;82.00;;;;;;5080199;28;19924;-63
2022/05/16 01:45:18;;;;;;;;;;;11.40;81.40;;;;;;5093052;28;19928;-63
2022/05/16 01:47:44;;;;;;;;;;;11.40;82.00;;;;;;5080727;28;21737;-63
2022/05/16 01:50:09;;;;;;;;;;;11.30;81.40;;;;;;5090224;28;19935;-63
2022/05/16 01:52:35;;;;;;;;;;;11.30;81.30;;;;;;5089386;28;19958;-63
2022/05/16 01:55:00;;;;;;;;;;;11.40;81.50;;;;;;5091500;28;20283;-63
2022/05/16 01:57:26;;;;;;;;;;;11.40;81.30;;;;;;5092126;28;19931;-63
2022/05/16 01:59:51;;;;;;;;;;;11.40;81.70;;;;;;5071053;28;19924;-63
2022/05/16 02:02:17;;;;;;;;;;;11.40;81.00;;;;;;5087832;28;19928;-63
2022/05/16 02:04:42;;;;;;;;;;;11.40;81.80;;;;;;5086894;28;20405;-63
2022/05/16 02:07:07;;;;;;;;;;;11.40;81.00;;;;;;5084602;28;20485;-63
2022/05/16 02:09:33;;;;;;;;;;;11.40;81.00;;;;;;5092581;28;19920;-63
2022/05/16 02:11:59;;;;;;;;;;;11.40;80.90;;;;;;5089572;28;19951;-63
2022/05/16 02:14:25;;;;;;;;;;;11.30;80.90;;;;;;5089836;28;19924;-63
2022/05/16 02:16:50;;;;;;;;;;;11.30;80.70;;;;;;5085393;28;19932;-63
2022/05/16 02:19:16;;;;;;;;;;;11.30;80.00;;;;;;5083319;28;19923;-63
2022/05/16 02:24:42;;;;;;;;;;;11.30;82.50;;;;;;5087009;28;19955;-63
2022/05/16 02:27:12;;;;;;;;;;;11.30;81.10;;;;;;5088955;28;19920;-63
2022/05/16 02:29:37;;;;;;;;;;;11.30;80.40;;;;;;5089593;28;19924;-63
2022/05/16 02:32:04;;;;;;;;;;;11.30;79.90;;;;;;5087394;28;19966;-63
2022/05/16 02:34:29;;;;;;;;;;;11.30;80.50;;;;;;5085401;28;19978;-63
2022/05/16 02:36:55;;;;;;;;;;;11.30;79.70;;;;;;5085076;28;20396;-63
2022/05/16 02:39:20;;;;;;;;;;;11.30;80.50;;;;;;5085845;28;19924;-63
2022/05/16 02:41:46;;;;;;;;;;;11.30;80.80;;;;;;5088508;28;19929;-63
2022/05/16 02:44:12;;;;;;;;;;;11.30;80.10;;;;;;5091930;28;20000;-63
2022/05/16 02:46:38;;;;;;;;;;;11.20;79.90;;;;;;5091368;28;20291;-63
2022/05/16 02:49:03;;;;;;;;;;;11.20;80.60;;;;;;5075812;28;19970;-63
2022/05/16 02:51:29;;;;;;;;;;;11.20;80.30;;;;;;5080610;28;19920;-63
2022/05/16 02:53:55;;;;;;;;;;;11.20;80.10;;;;;;5085338;28;19925;-63
2022/05/16 02:56:20;;;;;;;;;;;11.20;80.00;;;;;;5081425;28;20672;-63
2022/05/16 02:58:46;;;;;;;;;;;11.20;80.20;;;;;;5083987;28;19920;-63
2022/05/16 03:01:11;;;;;;;;;;;11.20;79.80;;;;;;5078253;28;19928;-63
2022/05/16 03:03:38;;;;;;;;;;;11.20;80.50;;;;;;5090916;28;19920;-64
2022/05/16 03:06:04;;;;;;;;;;;11.10;79.80;;;;;;5087823;28;19966;-63
2022/05/16 03:08:29;;;;;;;;;;;11.20;80.30;;;;;;5086776;28;20318;-63
2022/05/16 03:10:54;;;;;;;;;;;11.10;80.20;;;;;;5082080;28;19920;-63
2022/05/16 03:13:20;;;;;;;;;;;11.10;79.70;;;;;;5074385;28;19932;-63
2022/05/16 03:15:46;;;;;;;;;;;11.10;79.50;;;;;;5074555;28;19924;-63
2022/05/16 03:18:12;;;;;;;;;;;11.10;79.50;;;;;;5088892;28;19920;-63
2022/05/16 03:20:37;;;;;;;;;;;11.10;79.50;;;;;;5090450;28;19920;-63
2022/05/16 03:23:03;;;;;;;;;;;11.00;79.80;;;;;;5089380;28;19924;-63
2022/05/16 03:25:28;;;;;;;;;;;11.00;79.50;;;;;;5088079;28;19920;-63
2022/05/16 03:27:54;;;;;;;;;;;11.00;79.40;;;;;;5079957;28;19973;-63
2022/05/16 03:30:19;;;;;;;;;;;11.00;79.40;;;;;;5083551;28;19920;-63
2022/05/16 03:32:45;;;;;;;;;;;11.00;79.60;;;;;;5079409;28;19920;-63
2022/05/16 03:35:10;;;;;;;;;;;11.00;79.20;;;;;;5087891;28;19935;-63
2022/05/16 03:37:36;;;;;;;;;;;11.00;79.50;;;;;;5086528;28;19954;-63
2022/05/16 03:42:46;;;;;;;;;;;11.00;79.10;;;;;;5076968;28;19997;-63
2022/05/16 03:45:12;;;;;;;;;;;11.00;79.00;;;;;;5080481;28;19960;-63
2022/05/16 03:47:37;;;;;;;;;;;11.00;79.00;;;;;;5079015;28;19964;-63
2022/05/16 03:50:03;;;;;;;;;;;11.00;78.80;;;;;;5080236;28;19962;-63
2022/05/16 03:52:29;;;;;;;;;;;11.00;79.20;;;;;;5085651;28;19927;-63
2022/05/16 03:54:54;;;;;;;;;;;11.00;78.90;;;;;;5076033;28;20446;-63
2022/05/16 03:57:21;;;;;;;;;;;11.00;78.80;;;;;;5082571;28;19932;-63
2022/05/16 03:59:47;;;;;;;;;;;11.00;78.60;;;;;;5079213;28;19920;-63
2022/05/16 04:02:13;;;;;;;;;;;11.00;78.60;;;;;;5085372;28;20420;-63
2022/05/16 04:04:38;;;;;;;;;;;11.00;78.60;;;;;;5089771;28;20061;-63
2022/05/16 04:07:04;;;;;;;;;;;11.10;78.80;;;;;;5077718;28;19928;-63
2022/05/16 04:09:29;;;;;;;;;;;11.00;78.50;;;;;;5084447;28;19927;-63
2022/05/16 04:11:55;;;;;;;;;;;11.10;78.70;;;;;;5088168;28;19924;-63
2022/05/16 04:14:20;;;;;;;;;;;11.10;78.70;;;;;;5085821;28;19935;-63
2022/05/16 04:16:46;;;;;;;;;;;11.10;78.60;;;;;;5086864;28;19970;-63
2022/05/16 04:19:11;;;;;;;;;;;11.20;78.50;;;;;;5065579;28;20455;-63
2022/05/16 04:21:38;;;;;;;;;;;11.20;78.50;;;;;;5089856;28;19921;-63
2022/05/16 04:24:05;;;;;;;;;;;11.30;79.00;;;;;;5087003;28;20003;-63
2022/05/16 04:26:31;;;;;;;;;;;11.30;78.60;;;;;;5091754;28;19929;-63
2022/05/16 04:28:57;;;;;;;;;;;11.30;79.10;;;;;;5084289;28;20341;-63
2022/05/16 04:31:23;;;;;;;;;;;11.40;78.50;;;;;;5079828;28;20443;-63
2022/05/16 04:33:48;;;;;;;;;;;11.50;78.10;;;;;;5092991;28;19924;-62
2022/05/16 04:36:14;;;;;;;;;;;11.50;78.20;;;;;;5086817;28;19932;-64
2022/05/16 04:38:39;;;;;;;;;;;11.60;78.10;;;;;;5081899;28;19920;-62
2022/05/16 04:43:50;;;;;;;;;;;11.70;78.10;;;;;;5092585;28;19946;-63
2022/05/16 04:46:15;;;;;;;;;;;11.70;77.70;;;;;;5086548;28;19924;-64
2022/05/16 04:48:41;;;;;;;;;;;11.80;77.40;;;;;;5087384;28;19924;-63
2022/05/16 04:51:06;;;;;;;;;;;11.80;77.40;;;;;;5089634;28;20064;-63
2022/05/16 04:53:32;;;;;;;;;;;11.90;77.30;;;;;;5085584;28;20049;-64
2022/05/16 04:55:58;;;;;;;;;;;11.90;77.40;;;;;;5090878;28;20026;-63
2022/05/16 04:58:23;;;;;;;;;;;12.00;76.80;;;;;;5080757;28;20354;-64
2022/05/16 05:00:49;;;;;;;;;;;12.00;76.60;;;;;;5083150;28;19940;-64
2022/05/16 05:03:15;;;;;;;;;;;12.00;76.60;;;;;;5089781;28;19970;-63
2022/05/16 05:05:40;;;;;;;;;;;12.00;76.30;;;;;;5092690;28;19977;-63
2022/05/16 05:08:06;;;;;;;;;;;11.90;76.40;;;;;;5091542;28;19927;-63
2022/05/16 05:16:16;;;;;;;;;;;11.90;76.20;;;;;;5088024;28;20367;-63
2022/05/16 05:18:41;;;;;;;;;;;11.90;76.30;;;;;;5079212;28;19924;-63
2022/05/16 05:21:07;;;;;;;;;;;12.00;76.30;;;;;;5092509;28;20270;-63
2022/05/16 05:23:34;;;;;;;;;;;12.20;75.80;;;;;;5091086;28;19924;-63
2022/05/16 05:26:00;;;;;;;;;;;12.30;75.80;;;;;;5086148;28;20466;-64
2022/05/16 05:28:25;;;;;;;;;;;12.50;75.30;;;;;;5085182;28;20023;-63
2022/05/16 05:30:51;;;;;;;;;;;12.70;75.10;;;;;;5083148;28;19994;-64
2022/05/16 05:33:17;;;;;;;;;;;12.80;74.60;;;;;;5091076;28;19931;-63
2022/05/16 05:35:42;;;;;;;;;;;13.10;74.20;;;;;;5078560;28;19939;-63
2022/05/16 05:38:09;;;;;;;;;;;13.40;73.70;;;;;;5085028;28;19928;-63
2022/05/16 05:40:35;;;;;;;;;;;13.60;73.20;;;;;;5090813;28;19931;-63
2022/05/16 05:43:05;;;;;;;;;;;13.60;72.00;;;;;;5082966;28;19935;-63
2022/05/16 05:45:31;;;;;;;;;;;13.60;71.50;;;;;;5084823;28;19921;-63
2022/05/16 05:47:56;;;;;;;;;;;13.60;71.50;;;;;;5074320;28;19943;-63
2022/05/16 05:50:22;;;;;;;;;;;13.60;71.40;;;;;;5078601;28;19920;-63
2022/05/16 05:52:47;;;;;;;;;;;13.50;71.20;;;;;;5086360;28;20603;-63
2022/05/16 05:55:13;;;;;;;;;;;13.60;71.40;;;;;;5077498;28;20007;-63
2022/05/16 05:57:38;;;;;;;;;;;13.70;71.60;;;;;;5079151;28;19932;-63
2022/05/16 06:00:04;;;;;;;;;;;13.80;72.20;;;;;;5087523;28;19924;-63
2022/05/16 06:02:30;;;;;;;;;;;13.80;70.90;;;;;;5081456;28;20321;-63
2022/05/16 06:04:55;;;;;;;;;;;13.90;70.90;;;;;;5082682;28;19920;-63
2022/05/16 06:07:21;;;;;;;;;;;13.90;70.90;;;;;;5087343;28;19924;-63
2022/05/16 06:09:46;;;;;;;;;;;14.10;70.90;;;;;;5085162;28;19999;-63
2022/05/16 06:12:12;;;;;;;;;;;14.30;69.70;;;;;;5081248;28;19921;-63
2022/05/16 06:14:38;;;;;;;;;;;14.40;69.50;;;;;;5087846;28;19924;-63
2022/05/16 06:17:04;;;;;;;;;;;14.40;69.10;;;;;;5090453;28;20546;-63
2022/05/16 06:19:29;;;;;;;;;;;14.40;69.50;;;;;;5084697;28;20004;-63
2022/05/16 06:21:55;;;;;;;;;;;14.50;69.10;;;;;;5079901;28;19959;-63
2022/05/16 06:27:05;;;;;;;;;;;14.50;68.70;;;;;;5082085;28;19927;-62
2022/05/16 06:29:31;;;;;;;;;;;14.50;67.80;;;;;;5085230;28;19924;-63
2022/05/16 06:31:57;;;;;;;;;;;14.50;68.50;;;;;;5086587;28;19964;-65
2022/05/16 06:34:22;;;;;;;;;;;14.50;68.40;;;;;;5081507;28;19920;-64
2022/05/16 06:36:48;;;;;;;;;;;14.50;68.20;;;;;;5084326;28;19928;-63
2022/05/16 06:39:13;;;;;;;;;;;14.60;68.30;;;;;;5088159;28;19920;-63
2022/05/16 06:41:39;;;;;;;;;;;14.60;67.90;;;;;;5088311;28;19927;-63
2022/05/16 06:44:04;;;;;;;;;;;14.70;67.90;;;;;;5086562;28;20391;-63
2022/05/16 06:46:30;;;;;;;;;;;15.00;68.20;;;;;;5091119;28;20002;-63
2022/05/16 06:48:55;;;;;;;;;;;15.40;67.70;;;;;;5088162;28;19920;-64
2022/05/16 06:51:21;;;;;;;;;;;15.90;66.10;;;;;;5077352;28;19951;-63
2022/05/16 06:53:46;;;;;;;;;;;16.20;65.60;;;;;;5106001;28;20634;-63
2022/05/16 06:56:13;;;;;;;;;;;16.50;64.50;;;;;;5082522;28;20356;-65
2022/05/16 06:58:39;;;;;;;;;;;16.80;62.80;;;;;;5090939;28;19924;-63
2022/05/16 07:01:04;;;;;;;;;;;17.10;63.00;;;;;;5084626;28;19921;-64
2022/05/16 07:03:30;;;;;;;;;;;17.40;61.40;;;;;;5082793;28;19924;-63
2022/05/16 07:05:56;;;;;;;;;;;17.60;61.60;;;;;;5090445;28;19931;-63
2022/05/16 07:08:22;;;;;;;;;;;17.80;58.80;;;;;;5086776;28;19997;-64
2022/05/16 07:10:48;;;;;;;;;;;18.00;58.00;;;;;;5091665;28;19931;-64
2022/05/16 07:13:14;;;;;;;;;;;18.20;57.80;;;;;;5078181;28;20260;-64
2022/05/16 07:15:39;;;;;;;;;;;18.30;56.70;;;;;;5072763;28;19947;-65
2022/05/16 07:18:05;;;;;;;;;;;18.50;56.10;;;;;;5074524;28;19967;-64
2022/05/16 07:20:31;;;;;;;;;;;18.70;57.60;;;;;;5087201;28;19985;-64
2022/05/16 07:22:58;;;;;;;;;;;19.00;56.60;;;;;;5086317;28;19965;-64
2022/05/16 07:25:28;;;;;;;;;;;19.20;55.20;;;;;;5089546;28;19926;-64
2022/05/16 07:27:57;;;;;;;;;;;19.40;55.80;;;;;;5085643;28;20253;-65
2022/05/16 07:30:26;;;;;;;;;;;19.80;55.70;;;;;;5083324;28;19924;-64
2022/05/16 07:32:52;;;;;;;;;;;20.20;53.90;;;;;;5089006;28;19959;-64
2022/05/16 07:35:19;;;;;;;;;;;20.60;53.40;;;;;;5077100;28;20017;-64
2022/05/16 07:37:44;;;;;;;;;;;20.60;50.80;;;;;;5080595;28;19939;-65
2022/05/16 07:40:10;;;;;;;;;;;20.60;50.30;;;;;;5071532;28;19928;-64
2022/05/16 07:42:36;;;;;;;;;;;20.90;51.10;;;;;;5086546;28;19943;-65
2022/05/16 07:45:02;;;;;;;;;;;21.10;49.80;;;;;;5084340;28;19974;-67
2022/05/16 07:47:30;;;;;;;;;;;21.30;49.80;;;;;;5077916;28;19921;-64
2022/05/16 07:49:56;;;;;;;;;;;21.30;50.80;;;;;;5086137;28;19926;-67
2022/05/16 07:52:23;;;;;;;;;;;21.30;48.20;;;;;;5088626;28;19926;-65
2022/05/16 07:54:48;;;;;;;;;;;21.40;47.90;;;;;;5087144;28;20374;-64
2022/05/16 07:57:14;;;;;;;;;;;21.70;48.60;;;;;;5080502;28;19924;-65
2022/05/16 07:59:41;;;;;;;;;;;21.70;46.90;;;;;;5079993;28;20351;-66
2022/05/16 08:02:07;;;;;;;;;;;21.70;48.00;;;;;;5078291;28;19959;-64
2022/05/16 08:04:33;;;;;;;;;;;22.20;48.20;;;;;;5089084;28;19994;-65
2022/05/16 08:06:58;;;;;;;;;;;22.30;47.00;;;;;;5091497;28;20415;-65
2022/05/16 08:12:10;;;;;;;;;;;22.10;46.20;;;;;;5068974;28;19927;-64
2022/05/16 08:14:36;;;;;;;;;;;22.10;46.70;;;;;;5072925;28;19924;-67
2022/05/16 08:17:02;;;;;;;;;;;22.20;45.60;;;;;;5078606;28;20383;-64
2022/05/16 08:19:29;;;;;;;;;;;22.50;45.90;;;;;;5083192;28;19928;-66
2022/05/16 08:21:54;;;;;;;;;;;23.00;45.50;;;;;;5080144;28;19928;-65
2022/05/16 08:24:20;;;;;;;;;;;23.10;44.90;;;;;;5074534;28;20501;-65
2022/05/16 08:26:46;;;;;;;;;;;23.30;44.60;;;;;;5082579;28;19959;-65
2022/05/16 08:29:11;;;;;;;;;;;23.30;43.10;;;;;;5070034;28;19950;-65
2022/05/16 08:31:36;;;;;;;;;;;23.80;43.70;;;;;;5071408;28;19924;-66
2022/05/16 08:34:02;;;;;;;;;;;24.10;42.70;;;;;;5078066;28;20642;-66
2022/05/16 08:41:57;;;;;;;;;;;24.90;40.70;;;;;;5077311;28;19924;-66
2022/05/16 08:44:27;;;;;;;;;;;24.50;40.10;;;;;;5086093;28;19998;-65
2022/05/16 08:47:11;;;;;;;;;;;24.50;41.10;;;;;;5071055;28;19924;-66
2022/05/16 08:49:47;;;;;;;;;;;24.40;41.40;;;;;;5084560;28;19975;-65
2022/05/16 08:52:17;;;;;;;;;;;24.70;41.10;;;;;;5070606;28;20019;-65
2022/05/16 08:54:49;;;;;;;;;;;24.80;41.00;;;;;;5082962;28;20049;-64
2022/05/16 08:57:20;;;;;;;;;;;24.90;40.60;;;;;;5051879;28;19967;-66
2022/05/16 08:59:52;;;;;;;;;;;25.00;41.00;;;;;;5083012;28;19924;-66
2022/05/16 09:02:21;;;;;;;;;;;25.10;39.70;;;;;;5090239;28;19920;-64
2022/05/16 09:05:00;;;;;;;;;;;25.50;40.10;;;;;;5088839;28;19981;-66
2022/05/16 09:07:35;;;;;;;;;;;25.50;39.20;;;;;;5088718;28;19956;-66
2022/05/16 09:10:09;;;;;;;;;;;26.20;39.30;;;;;;5089469;28;20183;-66
2022/05/16 09:12:40;;;;;;;;;;;26.70;38.10;;;;;;5074760;28;19921;-65
2022/05/16 09:15:05;;;;;;;;;;;26.90;36.10;;;;;;5083343;28;20291;-67
2022/05/16 09:17:48;;;;;;;;;;;27.30;36.00;;;;;;5092020;28;19928;-66
2022/05/16 09:20:31;;;;;;;;;;;28.10;36.70;;;;;;5086469;28;19924;-67
2022/05/16 09:23:15;;;;;;;;;;;28.70;35.70;;;;;;5092239;28;19928;-66
2022/05/16 09:25:48;;;;;;;;;;;28.70;34.80;;;;;;5086209;28;19985;-67
2022/05/16 09:31:02;;;;;;;;;;;29.00;32.50;;;;;;5091496;28;19920;-67
2022/05/16 09:33:29;;;;;;;;;;;29.00;33.90;;;;;;5090726;28;19977;-67
2022/05/16 09:36:05;;;;;;;;;;;29.20;33.20;;;;;;5080241;28;20011;-67
2022/05/16 09:38:31;;;;;;;;;;;29.00;32.80;;;;;;5079118;28;19924;-66
2022/05/16 09:40:59;;;;;;;;;;;28.50;31.70;;;;;;5090793;28;19927;-67
2022/05/16 09:43:26;;;;;;;;;;;28.40;32.80;;;;;;5089657;28;19920;-66
2022/05/16 09:45:54;;;;;;;;;;;28.60;33.60;;;;;;5083406;28;19924;-65
2022/05/16 09:48:21;;;;;;;;;;;28.90;32.90;;;;;;5093389;28;20008;-65
2022/05/16 09:50:59;;;;;;;;;;;28.50;33.10;;;;;;5092905;28;19920;-64
2022/05/16 09:53:36;;;;;;;;;;;28.70;33.30;;;;;;5088416;28;19927;-64
2022/05/16 09:56:09;;;;;;;;;;;29.00;33.60;;;;;;5089838;28;19935;-64
2022/05/16 09:58:37;;;;;;;;;;;29.30;32.80;;;;;;5079872;28;19920;-65
2022/05/16 10:01:04;;;;;;;;;;;29.70;32.50;;;;;;5086765;28;19920;-65
2022/05/16 10:03:32;;;;;;;;;;;30.50;32.00;;;;;;5092266;28;19920;-65
2022/05/16 10:06:03;;;;;;;;;;;30.90;31.00;;;;;;5079621;28;19927;-66
2022/05/16 10:08:30;;;;;;;;;;;30.60;30.10;;;;;;5087644;28;19924;-69
2022/05/16 10:10:57;;;;;;;;;;;31.10;30.50;;;;;;5092684;28;20014;-65
2022/05/16 10:13:23;;;;;;;;;;;31.30;29.90;;;;;;5074079;28;19993;-66
2022/05/16 10:15:50;;;;;;;;;;;31.60;29.10;;;;;;5073578;28;19955;-65
2022/05/16 10:18:18;;;;;;;;;;;31.70;29.80;;;;;;5080634;28;19928;-65
2022/05/16 10:20:46;;;;;;;;;;;31.10;28.90;;;;;;5072298;28;19924;-67
2022/05/16 10:23:21;;;;;;;;;;;30.70;29.90;;;;;;5082525;28;19963;-65
2022/05/16 10:25:47;;;;;;;;;;;30.20;30.00;;;;;;5074239;28;19965;-66
2022/05/16 10:28:19;;;;;;;;;;;29.20;30.50;;;;;;5084631;28;19920;-66
2022/05/16 10:33:32;;;;;;;;;;;29.80;31.60;;;;;;5088508;28;20007;-66
2022/05/16 10:36:16;;;;;;;;;;;29.80;31.00;;;;;;5079526;28;20139;-64
2022/05/16 10:39:00;;;;;;;;;;;29.50;31.30;;;;;;5078696;28;20280;-65
2022/05/16 10:41:30;;;;;;;;;;;29.10;32.40;;;;;;5079456;28;19936;-65
2022/05/16 10:44:16;;;;;;;;;;;28.90;32.20;;;;;;5085831;28;20438;-66
2022/05/16 10:46:54;;;;;;;;;;;28.50;32.40;;;;;;5076054;28;19924;-64
2022/05/16 10:49:21;;;;;;;;;;;28.40;33.90;;;;;;5075486;28;19928;-64
2022/05/16 10:51:55;;;;;;;;;;;28.10;34.00;;;;;;5083354;28;19998;-64
2022/05/16 10:54:22;;;;;;;;;;;28.10;34.30;;;;;;5073349;28;20300;-66
2022/05/16 10:56:54;;;;;;;;;;;27.60;34.20;;;;;;5079757;28;20422;-64
2022/05/16 10:59:30;;;;;;;;;;;27.60;35.10;;;;;;5076723;28;19977;-64
2022/05/16 11:02:14;;;;;;;;;;;27.80;35.70;;;;;;5087172;28;19920;-65
2022/05/16 11:04:58;;;;;;;;;;;27.60;35.40;;;;;;5081087;28;19928;-63
2022/05/16 11:07:42;;;;;;;;;;;27.40;35.50;;;;;;5073183;28;20007;-64
2022/05/16 11:10:11;;;;;;;;;;;27.60;36.00;;;;;;5088902;28;19927;-64
2022/05/16 11:12:43;;;;;;;;;;;27.70;35.40;;;;;;5092611;28;20353;-65
2022/05/16 11:15:15;;;;;;;;;;;27.30;34.40;;;;;;5091051;28;19920;-64
2022/05/16 11:17:46;;;;;;;;;;;27.20;35.60;;;;;;5091063;28;19927;-65
2022/05/16 11:20:19;;;;;;;;;;;27.20;36.10;;;;;;5085387;28;19963;-64
2022/05/16 11:22:54;;;;;;;;;;;27.40;36.50;;;;;;5091651;28;19920;-65
2022/05/16 11:25:20;;;;;;;;;;;27.20;36.10;;;;;;5091164;28;20279;-65
2022/05/16 11:27:54;;;;;;;;;;;26.90;36.70;;;;;;5089765;28;19927;-66
2022/05/16 11:30:26;;;;;;;;;;;27.00;36.50;;;;;;5084231;28;19995;-65
2022/05/16 11:32:51;;;;;;;;;;;26.90;36.50;;;;;;5074970;28;20398;-65
2022/05/16 11:35:17;;;;;;;;;;;26.50;37.00;;;;;;5087444;28;19920;-65
2022/05/16 11:38:02;;;;;;;;;;;26.60;37.40;;;;;;5084921;28;19935;-65
2022/05/16 11:40:39;;;;;;;;;;;26.20;38.30;;;;;;5076903;28;19927;-64
2022/05/16 11:43:18;;;;;;;;;;;26.20;38.30;;;;;;5086846;28;20053;-64
2022/05/16 11:45:59;;;;;;;;;;;25.90;39.00;;;;;;5079460;28;19931;-65
2022/05/16 11:48:31;;;;;;;;;;;25.70;38.80;;;;;;5078150;28;19924;-65
2022/05/16 11:51:10;;;;;;;;;;;25.70;41.60;;;;;;5072055;28;19928;-65
2022/05/16 11:53:44;;;;;;;;;;;25.40;40.40;;;;;;5080353;28;20301;-65
2022/05/16 12:02:08;;;;;;;;;;;24.40;45.10;;;;;;5074624;28;19920;-66
2022/05/16 12:04:40;;;;;;;;;;;24.40;47.50;;;;;;5078716;28;19923;-66
2022/05/16 12:07:13;;;;;;;;;;;23.40;51.70;;;;;;5081339;28;19920;-66
2022/05/16 12:09:56;;;;;;;;;;;22.70;55.50;;;;;;5075545;28;20450;-66
2022/05/16 12:12:34;;;;;;;;;;;22.00;60.40;;;;;;5077239;28;19928;-66
2022/05/16 12:15:10;;;;;;;;;;;21.80;59.60;;;;;;5068941;28;19956;-65
2022/05/16 12:17:36;;;;;;;;;;;21.70;61.10;;;;;;5074501;28;20304;-65
2022/05/16 12:20:07;;;;;;;;;;;21.80;60.30;;;;;;5084787;28;19932;-65
2022/05/16 12:22:36;;;;;;;;;;;21.90;64.00;;;;;;5071609;28;19924;-65
2022/05/16 12:25:08;;;;;;;;;;;22.10;62.20;;;;;;5072951;28;19928;-65
2022/05/16 12:27:35;;;;;;;;;;;22.20;64.30;;;;;;5081990;28;19925;-65
2022/05/16 12:30:06;;;;;;;;;;;22.40;63.50;;;;;;5072682;28;19955;-65
2022/05/16 12:32:31;;;;;;;;;;;22.60;61.80;;;;;;5074937;28;19931;-65
2022/05/16 12:35:01;;;;;;;;;;;22.80;60.80;;;;;;5073427;28;19920;-64
2022/05/16 12:37:27;;;;;;;;;;;23.00;62.10;;;;;;5081879;28;19932;-64
2022/05/16 12:39:55;;;;;;;;;;;23.20;60.10;;;;;;5083077;28;20408;-64
2022/05/16 12:42:30;;;;;;;;;;;23.40;55.90;;;;;;5076886;28;20440;-64
2022/05/16 12:44:57;;;;;;;;;;;23.50;58.00;;;;;;5074169;28;19926;-64
2022/05/16 12:47:32;;;;;;;;;;;23.10;58.60;;;;;;5074938;28;20647;-64
2022/05/16 12:50:07;;;;;;;;;;;23.30;60.70;;;;;;5074473;28;19920;-65
2022/05/16 12:52:51;;;;;;;;;;;23.40;56.00;;;;;;5079807;28;19967;-64
2022/05/16 12:55:19;;;;;;;;;;;23.30;57.40;;;;;;5090704;28;19931;-64
2022/05/16 12:57:51;;;;;;;;;;;23.40;55.60;;;;;;5086650;28;19928;-65
2022/05/16 13:00:19;;;;;;;;;;;23.50;54.20;;;;;;5089410;28;19935;-64
2022/05/16 13:02:47;;;;;;;;;;;23.70;55.50;;;;;;5086763;28;19935;-64
2022/05/16 13:05:31;;;;;;;;;;;23.90;53.10;;;;;;5092267;28;19930;-65
2022/05/16 13:08:03;;;;;;;;;;;24.50;52.30;;;;;;5085559;28;19950;-65
2022/05/16 13:10:51;;;;;;;;;;;25.00;50.30;;;;;;5092499;28;19920;-65
2022/05/16 13:13:36;;;;;;;;;;;25.30;50.20;;;;;;5091905;28;20511;-65
2022/05/16 13:16:07;;;;;;;;;;;25.10;47.60;;;;;;5076842;28;19924;-65
2022/05/16 13:18:39;;;;;;;;;;;25.30;47.90;;;;;;5074093;28;20272;-65
2022/05/16 13:21:10;;;;;;;;;;;25.40;49.40;;;;;;5073192;28;19924;-65
2022/05/16 13:23:37;;;;;;;;;;;25.60;47.40;;;;;;5088945;28;20275;-64
2022/05/16 13:31:37;;;;;;;;;;;25.80;46.50;;;;;;5083048;28;19935;-66
2022/05/16 13:34:04;;;;;;;;;;;25.60;47.00;;;;;;5093458;28;19976;-64
2022/05/16 13:36:30;;;;;;;;;;;25.60;47.00;;;;;;5093210;28;19924;-64
2022/05/16 13:39:00;;;;;;;;;;;25.50;47.10;;;;;;5094403;28;20006;-64
2022/05/16 13:41:27;;;;;;;;;;;25.30;46.60;;;;;;5083160;28;19994;-65
2022/05/16 13:43:53;;;;;;;;;;;25.20;47.90;;;;;;5103745;28;19920;-65
2022/05/16 13:46:19;;;;;;;;;;;25.10;48.20;;;;;;5070634;28;19927;-65
2022/05/16 13:48:53;;;;;;;;;;;25.00;48.10;;;;;;5076092;28;20278;-65
2022/05/16 13:51:19;;;;;;;;;;;25.00;48.00;;;;;;5072615;28;20356;-65
2022/05/16 13:53:44;;;;;;;;;;;25.00;48.40;;;;;;5083548;28;19935;-65
2022/05/16 13:56:10;;;;;;;;;;;24.90;49.10;;;;;;5092062;28;19924;-65
2022/05/16 13:58:37;;;;;;;;;;;24.90;49.70;;;;;;5093279;28;20010;-65
2022/05/16 14:01:12;;;;;;;;;;;24.70;49.30;;;;;;5092939;28;19920;-65
2022/05/16 14:03:38;;;;;;;;;;;24.70;49.60;;;;;;5091852;28;20014;-65
2022/05/16 14:06:03;;;;;;;;;;;24.70;49.60;;;;;;5091933;28;20010;-65
2022/05/16 14:08:40;;;;;;;;;;;24.70;50.10;;;;;;5094896;28;19929;-65
2022/05/16 14:11:06;;;;;;;;;;;24.70;50.20;;;;;;5090889;28;20011;-65
2022/05/16 14:13:33;;;;;;;;;;;24.70;50.30;;;;;;5092245;28;19981;-65
2022/05/16 14:16:17;;;;;;;;;;;24.70;49.40;;;;;;5092804;28;20014;-65
2022/05/16 14:18:42;;;;;;;;;;;24.80;49.70;;;;;;5081211;28;19927;-65
2022/05/16 14:21:22;;;;;;;;;;;24.80;49.70;;;;;;5078305;28;20423;-65
2022/05/16 14:23:48;;;;;;;;;;;24.90;49.60;;;;;;5091609;28;20591;-64
2022/05/16 14:26:21;;;;;;;;;;;25.00;49.20;;;;;;5088555;28;19964;-64
2022/05/16 14:28:48;;;;;;;;;;;25.20;49.10;;;;;;5091543;28;19920;-65
2022/05/16 14:31:19;;;;;;;;;;;25.50;48.90;;;;;;5071917;28;20363;-65
2022/05/16 14:33:54;;;;;;;;;;;25.60;49.10;;;;;;5084407;28;20343;-65
2022/05/16 14:36:30;;;;;;;;;;;25.80;48.50;;;;;;5070865;28;20272;-65
2022/05/16 14:39:03;;;;;;;;;;;25.90;49.00;;;;;;5089832;28;19920;-64
2022/05/16 14:41:29;;;;;;;;;;;26.00;48.20;;;;;;5081355;28;20358;-63
2022/05/16 14:43:55;;;;;;;;;;;26.00;48.60;;;;;;5076503;28;19965;-64
2022/05/16 14:49:05;;;;;;;;;;;26.40;48.10;;;;;;5064196;28;19928;-64
2022/05/16 14:51:33;;;;;;;;;;;26.50;47.90;;;;;;5071031;28;19924;-65
2022/05/16 14:54:00;;;;;;;;;;;26.50;47.70;;;;;;5072760;28;19977;-64
2022/05/16 14:56:30;;;;;;;;;;;26.40;47.80;;;;;;5068868;28;19982;-64
2022/05/16 14:58:55;;;;;;;;;;;26.40;48.10;;;;;;5083239;28;19980;-65
2022/05/16 15:04:05;;;;;;;;;;;26.10;47.20;;;;;;5078999;28;19920;-65
2022/05/16 15:06:32;;;;;;;;;;;25.90;47.70;;;;;;5085944;28;19929;-64
2022/05/16 15:08:58;;;;;;;;;;;25.80;48.00;;;;;;5072027;28;19920;-64
2022/05/16 15:11:28;;;;;;;;;;;25.80;48.20;;;;;;5069805;28;20710;-64
2022/05/16 15:13:53;;;;;;;;;;;25.50;48.10;;;;;;5076500;28;19974;-64
2022/05/16 15:16:20;;;;;;;;;;;25.50;48.50;;;;;;5076497;28;19967;-64